createdAt,value
2018-05-29T00:00:08.101Z,18.07
2018-05-29T00:02:37.218Z,18.70
2018-05-29T00:05:06.298Z,17.93
2018-05-29T00:07:34.636Z,18.70
2018-05-29T00:10:02.951Z,18.80
2018-05-29T00:12:32.763Z,17.27
2018-05-29T00:15:01.081Z,17.93
2018-05-29T00:17:29.380Z,16.63
2018-05-29T00:19:57.685Z,18.53
2018-05-29T00:22:26.983Z,16.83
2018-05-29T00:24:55.359Z,14.67
2018-05-29T00:27:23.671Z,17.03
2018-05-29T00:29:53.150Z,15.60
2018-05-29T00:32:21.453Z,16.90
2018-05-29T00:34:50.529Z,16.30
2018-05-29T00:37:20.370Z,13.90
2018-05-29T00:39:49.705Z,14.97
2018-05-29T00:42:18.343Z,15.30
2018-05-29T00:44:47.476Z,15.80
2018-05-29T00:47:15.776Z,15.37
2018-05-29T00:49:44.698Z,15.50
2018-05-29T00:52:14.600Z,16.27
2018-05-29T00:54:43.390Z,15.17
2018-05-29T00:57:11.711Z,15.10
2018-05-29T00:59:40.971Z,14.43
2018-05-29T01:02:10.034Z,14.90
2018-05-29T01:04:38.649Z,14.23
2018-05-29T01:07:07.241Z,14.70
2018-05-29T01:09:35.764Z,14.73
2018-05-29T01:12:04.830Z,13.23
2018-05-29T01:14:33.975Z,15.03
2018-05-29T01:17:03.029Z,13.87
2018-05-29T01:19:31.340Z,12.60
2018-05-29T01:22:00.899Z,14.10
2018-05-29T01:24:29.429Z,13.43
2018-05-29T01:26:57.801Z,13.77
2018-05-29T01:29:27.970Z,12.97
2018-05-29T01:31:57.121Z,12.27
2018-05-29T01:34:29.609Z,12.80
2018-05-29T01:36:58.742Z,11.23
2018-05-29T01:39:27.152Z,13.20
2018-05-29T01:41:55.959Z,13.50
2018-05-29T01:44:25.057Z,11.93
2018-05-29T01:46:54.136Z,12.60
2018-05-29T01:49:22.425Z,13.37
2018-05-29T01:51:51.599Z,12.13
2018-05-29T01:54:19.974Z,12.20
2018-05-29T01:56:48.900Z,12.27
2018-05-29T01:59:18.856Z,12.57
2018-05-29T02:01:50.457Z,11.67
2018-05-29T02:04:19.694Z,11.80
2018-05-29T02:06:47.993Z,11.83
2018-05-29T02:09:16.465Z,11.70
2018-05-29T02:11:44.887Z,10.53
2018-05-29T02:14:13.194Z,12.20
2018-05-29T02:16:42.522Z,11.47
2018-05-29T02:19:12.364Z,12.03
2018-05-29T02:21:43.110Z,12.53
2018-05-29T02:24:11.904Z,11.60
2018-05-29T02:26:40.564Z,11.23
2018-05-29T02:29:10.089Z,12.57
2018-05-29T02:31:38.604Z,11.00
2018-05-29T02:34:07.675Z,12.53
2018-05-29T02:36:35.976Z,11.60
2018-05-29T02:39:05.071Z,11.80
2018-05-29T02:41:33.884Z,11.67
2018-05-29T02:44:03.496Z,12.47
2018-05-29T02:46:32.565Z,12.10
2018-05-29T02:49:01.137Z,11.90
2018-05-29T02:51:30.323Z,12.40
2018-05-29T02:53:58.621Z,12.30
2018-05-29T02:56:28.044Z,11.10
2018-05-29T02:58:57.314Z,13.20
2018-05-29T03:01:25.628Z,12.17
2018-05-29T03:03:54.716Z,12.47
2018-05-29T03:06:24.620Z,12.67
2018-05-29T03:08:53.045Z,13.07
2018-05-29T03:11:21.888Z,13.63
2018-05-29T03:13:53.565Z,13.53
2018-05-29T03:16:22.644Z,13.50
2018-05-29T03:25:41.142Z,13.90
2018-05-29T03:28:10.250Z,13.30
2018-05-29T03:30:38.864Z,13.60
2018-05-29T03:33:07.762Z,14.87
2018-05-29T03:35:36.061Z,14.23
2018-05-29T03:38:04.395Z,15.37
2018-05-29T03:40:34.581Z,15.50
2018-05-29T03:43:02.873Z,15.27
2018-05-29T03:45:32.845Z,14.43
2018-05-29T03:48:01.137Z,15.60
2018-05-29T03:50:29.973Z,16.23
2018-05-29T03:52:59.517Z,17.57
2018-05-29T03:55:27.814Z,16.73
2018-05-29T03:57:56.114Z,16.00
2018-05-29T04:00:24.479Z,16.13
2018-05-29T04:02:54.436Z,15.90
2018-05-29T04:05:24.490Z,16.90
2018-05-29T04:07:53.613Z,18.00
2018-05-29T04:10:22.042Z,17.20
2018-05-29T04:12:51.984Z,18.00
2018-05-29T04:15:21.946Z,17.97
2018-05-29T04:17:51.124Z,18.73
2018-05-29T04:20:20.641Z,16.20
2018-05-29T04:22:48.949Z,17.20
2018-05-29T04:25:18.064Z,17.50
2018-05-29T04:27:47.239Z,17.70
2018-05-29T04:30:16.327Z,17.20
2018-05-29T04:32:45.305Z,17.03
2018-05-29T04:35:13.922Z,17.40
2018-05-29T04:37:43.011Z,16.33
2018-05-29T04:40:11.564Z,16.77
2018-05-29T04:42:39.879Z,17.87
2018-05-29T04:45:09.114Z,15.53
2018-05-29T04:47:38.523Z,17.10
2018-05-29T04:50:06.842Z,16.40
2018-05-29T04:52:35.161Z,14.60
2018-05-29T04:55:03.475Z,17.20
2018-05-29T04:57:32.290Z,16.83
2018-05-29T05:00:02.014Z,15.80
2018-05-29T05:02:31.437Z,15.00
2018-05-29T05:05:01.372Z,15.90
2018-05-29T05:07:29.788Z,15.80
2018-05-29T05:09:59.263Z,15.30
2018-05-29T05:12:29.526Z,15.30
2018-05-29T05:14:58.642Z,15.23
2018-05-29T05:17:27.349Z,16.23
2018-05-29T05:19:56.763Z,16.93
2018-05-29T05:22:26.270Z,16.20
2018-05-29T05:24:55.425Z,15.20
2018-05-29T05:27:25.441Z,15.50
2018-05-29T05:29:54.293Z,15.47
2018-05-29T05:32:22.614Z,14.27
2018-05-29T05:34:51.267Z,15.50
2018-05-29T05:37:19.674Z,13.70
2018-05-29T05:39:47.973Z,13.03
2018-05-29T05:42:16.933Z,14.83
2018-05-29T05:44:45.262Z,14.20
2018-05-29T05:47:14.942Z,14.93
2018-05-29T05:49:43.790Z,14.00
2018-05-29T05:52:12.697Z,14.47
2018-05-29T05:54:41.714Z,13.67
2018-05-29T05:57:10.771Z,14.37
2018-05-29T05:59:40.218Z,14.03
2018-05-29T06:02:09.355Z,13.33
2018-05-29T06:04:40.037Z,13.70
2018-05-29T06:07:08.751Z,13.70
2018-05-29T06:09:38.433Z,13.43
2018-05-29T06:12:06.862Z,12.90
2018-05-29T06:14:35.924Z,13.47
2018-05-29T06:17:04.234Z,13.77
2018-05-29T06:19:33.879Z,12.37
2018-05-29T06:22:02.948Z,12.17
2018-05-29T06:24:32.429Z,12.80
2018-05-29T06:27:02.645Z,12.70
2018-05-29T06:29:31.362Z,12.03
2018-05-29T06:32:01.521Z,12.60
2018-05-29T06:34:29.856Z,12.00
2018-05-29T06:36:58.611Z,12.03
2018-05-29T06:39:28.515Z,10.77
2018-05-29T06:41:59.056Z,11.57
2018-05-29T06:44:27.482Z,11.70
2018-05-29T06:46:58.203Z,11.50
2018-05-29T06:49:26.677Z,11.57
2018-05-29T06:51:55.923Z,11.80
2018-05-29T06:54:25.945Z,12.07
2018-05-29T06:56:54.792Z,11.70
2018-05-29T06:59:23.903Z,11.23
2018-05-29T07:01:53.112Z,11.00
2018-05-29T07:04:21.435Z,11.10
2018-05-29T07:06:49.814Z,11.27
2018-05-29T07:09:29.981Z,12.67
2018-05-29T07:11:58.460Z,10.57
2018-05-29T07:14:27.700Z,10.90
2018-05-29T07:16:56.763Z,11.10
2018-05-29T07:19:25.121Z,12.83
2018-05-29T07:21:53.441Z,12.30
2018-05-29T07:24:24.041Z,12.10
2018-05-29T07:26:53.718Z,12.50
2018-05-29T07:29:22.018Z,11.70
2018-05-29T07:31:51.287Z,13.10
2018-05-29T07:34:20.929Z,10.57
2018-05-29T07:36:49.461Z,11.00
2018-05-29T07:39:18.920Z,11.03
2018-05-29T07:41:47.316Z,11.03
2018-05-29T07:44:16.240Z,10.57
2018-05-29T07:46:45.323Z,10.00
2018-05-29T07:49:13.979Z,11.33
2018-05-29T07:51:42.379Z,10.20
2018-05-29T07:54:11.317Z,10.97
2018-05-29T07:56:39.752Z,10.97
2018-05-29T07:59:08.818Z,11.20
2018-05-29T08:01:37.425Z,11.20
2018-05-29T08:04:05.856Z,9.83
2018-05-29T08:06:34.352Z,11.80
2018-05-29T08:09:03.213Z,11.20
2018-05-29T08:11:33.096Z,10.00
2018-05-29T08:14:02.598Z,10.43
2018-05-29T08:16:31.142Z,10.47
2018-05-29T08:19:00.118Z,10.83
2018-05-29T08:21:29.915Z,11.37
2018-05-29T08:23:58.644Z,10.13
2018-05-29T08:26:27.694Z,10.30
2018-05-29T08:28:56.060Z,10.47
2018-05-29T08:31:24.990Z,9.70
2018-05-29T08:33:54.079Z,9.77
2018-05-29T08:36:23.265Z,9.47
2018-05-29T08:38:52.342Z,9.60
2018-05-29T08:41:21.400Z,9.80
2018-05-29T08:43:49.835Z,8.63
2018-05-29T08:46:18.472Z,10.30
2018-05-29T08:48:47.311Z,9.57
2018-05-29T08:51:15.713Z,8.77
2018-05-29T08:53:44.784Z,9.70
2018-05-29T08:56:14.381Z,8.53
2018-05-29T08:58:43.472Z,10.40
2018-05-29T09:01:12.374Z,11.00
2018-05-29T09:03:41.777Z,9.90
2018-05-29T09:06:10.899Z,9.60
2018-05-29T09:08:40.645Z,9.13
2018-05-29T09:11:09.036Z,10.47
2018-05-29T09:13:37.453Z,9.13
2018-05-29T09:16:07.102Z,8.70
2018-05-29T09:18:36.183Z,8.80
2018-05-29T09:21:05.887Z,8.33
2018-05-29T09:23:35.785Z,9.70
2018-05-29T09:26:04.162Z,9.73
2018-05-29T09:28:32.568Z,8.67
2018-05-29T09:31:01.791Z,8.40
2018-05-29T09:33:30.471Z,7.40
2018-05-29T09:35:59.507Z,7.53
2018-05-29T09:38:28.214Z,8.60
2018-05-29T09:40:56.512Z,8.30
2018-05-29T09:43:26.477Z,8.87
2018-05-29T09:45:54.981Z,7.90
2018-05-29T09:48:24.059Z,7.70
2018-05-29T09:50:52.320Z,6.40
2018-05-29T09:53:21.046Z,6.93
2018-05-29T09:55:49.753Z,7.63
2018-05-29T09:58:18.950Z,7.37
2018-05-29T10:00:49.689Z,7.00
2018-05-29T10:03:18.511Z,7.90
2018-05-29T10:05:46.827Z,7.47
2018-05-29T10:08:16.448Z,7.53
2018-05-29T10:10:45.114Z,7.13
2018-05-29T10:13:13.445Z,6.60
2018-05-29T10:15:43.659Z,6.90
2018-05-29T10:18:12.557Z,7.53
2018-05-29T10:20:42.665Z,6.90
2018-05-29T10:23:10.966Z,6.13
2018-05-29T10:25:39.394Z,7.67
2018-05-29T10:28:07.880Z,7.00
2018-05-29T10:30:36.895Z,7.57
2018-05-29T10:33:06.842Z,7.27
2018-05-29T10:35:35.925Z,7.10
2018-05-29T10:38:05.014Z,6.90
2018-05-29T10:40:34.281Z,6.83
2018-05-29T10:43:02.747Z,7.17
2018-05-29T10:45:31.056Z,6.97
2018-05-29T10:47:59.388Z,6.30
2018-05-29T10:50:28.090Z,7.97
2018-05-29T10:52:56.476Z,6.50
2018-05-29T10:55:25.652Z,7.50
2018-05-29T10:57:53.961Z,7.00
2018-05-29T11:00:22.778Z,6.20
2018-05-29T11:02:51.234Z,6.83
2018-05-29T11:05:20.415Z,6.77
2018-05-29T11:07:49.257Z,6.30
2018-05-29T11:10:17.590Z,7.23
2018-05-29T11:12:46.818Z,6.70
2018-05-29T11:15:15.362Z,6.03
2018-05-29T11:17:44.496Z,7.17
2018-05-29T11:20:12.807Z,7.17
2018-05-29T11:22:42.617Z,6.90
2018-05-29T11:25:10.918Z,7.03
2018-05-29T11:27:40.362Z,5.60
2018-05-29T11:30:08.879Z,7.00
2018-05-29T11:32:37.756Z,7.30
2018-05-29T11:35:06.247Z,6.80
2018-05-29T11:37:34.540Z,6.60
2018-05-29T11:40:03.591Z,7.07
2018-05-29T11:42:31.934Z,7.57
2018-05-29T11:45:00.264Z,7.40
2018-05-29T11:47:29.262Z,7.17
2018-05-29T11:49:57.579Z,7.27
2018-05-29T11:52:27.035Z,5.67
2018-05-29T11:54:55.720Z,6.97
2018-05-29T11:57:24.389Z,6.90
2018-05-29T11:59:52.681Z,7.70
2018-05-29T12:02:21.297Z,7.20
2018-05-29T12:04:50.071Z,7.50
2018-05-29T12:07:19.275Z,6.53
2018-05-29T12:09:47.738Z,6.50
2018-05-29T12:12:27.068Z,6.37
2018-05-29T12:14:55.394Z,8.13
2018-05-29T12:17:24.559Z,6.03
2018-05-29T12:19:53.588Z,6.70
2018-05-29T12:22:23.611Z,7.07
2018-05-29T12:24:53.109Z,5.77
2018-05-29T12:27:21.456Z,6.40
2018-05-29T12:29:50.639Z,5.00
2018-05-29T12:32:19.739Z,5.33
2018-05-29T12:34:48.960Z,5.50
2018-05-29T12:37:17.342Z,5.30
2018-05-29T12:39:47.202Z,5.60
2018-05-29T12:42:16.535Z,6.00
2018-05-29T12:44:45.087Z,5.03
2018-05-29T12:47:13.377Z,4.83
2018-05-29T12:49:42.003Z,4.40
2018-05-29T12:52:10.743Z,4.63
2018-05-29T12:54:39.780Z,4.20
2018-05-29T12:57:08.276Z,4.00
2018-05-29T12:59:36.981Z,3.30
2018-05-29T13:02:05.304Z,5.50
2018-05-29T13:04:33.622Z,4.77
2018-05-29T13:07:02.738Z,4.60
2018-05-29T13:09:31.784Z,4.50
2018-05-29T13:12:00.113Z,4.50
2018-05-29T13:14:29.998Z,4.30
2018-05-29T13:16:58.331Z,4.17
2018-05-29T13:19:26.662Z,4.27
2018-05-29T13:21:54.962Z,3.23
2018-05-29T13:24:24.490Z,4.17
2018-05-29T13:26:53.648Z,3.60
2018-05-29T13:29:21.955Z,3.97
2018-05-29T13:31:52.380Z,3.50
2018-05-29T13:34:21.546Z,3.70
2018-05-29T13:36:50.697Z,3.50
2018-05-29T13:39:19.023Z,3.50
2018-05-29T13:41:47.984Z,3.70
2018-05-29T13:44:16.348Z,3.50
2018-05-29T13:46:45.115Z,3.20
2018-05-29T13:49:13.917Z,2.93
2018-05-29T13:51:42.197Z,3.40
2018-05-29T13:54:11.640Z,3.67
2018-05-29T13:56:40.354Z,3.20
2018-05-29T13:59:09.626Z,3.37
2018-05-29T14:01:37.995Z,3.57
2018-05-29T14:04:06.374Z,4.70
2018-05-29T14:06:34.706Z,2.97
2018-05-29T14:09:03.088Z,3.47
2018-05-29T14:11:31.995Z,4.00
2018-05-29T14:14:01.978Z,4.20
2018-05-29T14:16:31.226Z,3.47
2018-05-29T14:19:01.122Z,4.40
2018-05-29T14:21:30.915Z,4.40
2018-05-29T14:23:59.701Z,3.53
2018-05-29T14:26:27.980Z,3.80
2018-05-29T14:28:56.594Z,3.30
2018-05-29T14:31:25.685Z,3.90
2018-05-29T14:33:56.298Z,3.20
2018-05-29T14:36:24.588Z,4.40
2018-05-29T14:38:53.928Z,3.37
2018-05-29T14:41:22.219Z,3.23
2018-05-29T14:43:50.527Z,3.40
2018-05-29T14:46:19.181Z,2.37
2018-05-29T14:48:47.488Z,3.23
2018-05-29T14:51:17.031Z,3.13
2018-05-29T14:53:47.016Z,3.20
2018-05-29T14:56:16.061Z,2.87
2018-05-29T14:58:45.226Z,2.83
2018-05-29T15:01:15.343Z,2.57
2018-05-29T15:03:43.840Z,2.00
2018-05-29T15:06:15.737Z,2.37
2018-05-29T15:08:44.618Z,2.17
2018-05-29T15:11:13.103Z,2.60
2018-05-29T15:13:42.150Z,2.50
2018-05-29T15:16:10.510Z,2.80
2018-05-29T15:18:38.879Z,2.80
2018-05-29T15:21:07.902Z,2.80
2018-05-29T15:23:36.222Z,2.53
2018-05-29T15:26:06.081Z,2.73
2018-05-29T15:28:34.385Z,2.20
2018-05-29T15:31:03.352Z,2.40
2018-05-29T15:33:31.686Z,2.70
2018-05-29T15:36:01.632Z,2.60
2018-05-29T15:38:30.438Z,1.90
2018-05-29T15:40:59.362Z,2.43
2018-05-29T15:43:27.660Z,2.90
2018-05-29T15:45:56.810Z,2.93
2018-05-29T15:48:25.109Z,2.70
2018-05-29T15:50:53.467Z,2.53
2018-05-29T15:53:22.637Z,2.90
2018-05-29T15:55:51.685Z,2.87
2018-05-29T15:58:20.027Z,2.40
2018-05-29T16:00:48.846Z,2.57
2018-05-29T16:03:17.130Z,2.13
2018-05-29T16:05:45.563Z,2.60
2018-05-29T16:08:13.849Z,2.03
2018-05-29T16:10:42.134Z,2.47
2018-05-29T16:13:10.447Z,2.60
2018-05-29T16:15:38.906Z,3.10
2018-05-29T16:18:07.205Z,3.30
2018-05-29T16:20:35.529Z,2.40
2018-05-29T16:23:03.830Z,2.90
2018-05-29T16:25:32.117Z,2.60
2018-05-29T16:28:00.490Z,2.80
2018-05-29T16:30:28.884Z,2.30
2018-05-29T16:32:57.178Z,3.03
2018-05-29T16:35:25.568Z,2.53
2018-05-29T16:37:53.922Z,3.40
2018-05-29T16:40:22.219Z,2.60
2018-05-29T16:42:50.583Z,2.90
2018-05-29T16:45:18.968Z,3.50
2018-05-29T16:47:47.340Z,3.20
2018-05-29T16:50:16.505Z,2.63
2018-05-29T16:52:44.852Z,2.47
2018-05-29T16:55:14.157Z,3.07
2018-05-29T16:57:43.229Z,2.87
2018-05-29T17:00:12.207Z,2.50
2018-05-29T17:02:40.712Z,3.07
2018-05-29T17:05:09.842Z,3.47
2018-05-29T17:07:38.450Z,3.07
2018-05-29T17:10:06.752Z,3.53
2018-05-29T17:12:35.059Z,3.60
2018-05-29T17:15:04.160Z,3.00
2018-05-29T17:17:32.472Z,3.60
2018-05-29T17:20:01.849Z,3.40
2018-05-29T17:22:31.005Z,4.00
2018-05-29T17:24:59.534Z,3.37
2018-05-29T17:27:28.628Z,3.70
2018-05-29T17:29:57.766Z,3.10
2018-05-29T17:32:26.059Z,3.60
2018-05-29T17:34:54.363Z,3.23
2018-05-29T17:37:22.711Z,3.80
2018-05-29T17:39:51.027Z,3.70
2018-05-29T17:42:20.916Z,3.47
2018-05-29T17:44:49.390Z,3.30
2018-05-29T17:47:18.106Z,3.47
2018-05-29T17:49:46.412Z,3.33
2018-05-29T17:52:17.170Z,3.13
2018-05-29T17:54:46.854Z,2.90
2018-05-29T17:57:16.681Z,3.00
2018-05-29T17:59:45.290Z,3.27
2018-05-29T18:02:14.840Z,3.73
2018-05-29T18:04:44.138Z,3.53
2018-05-29T18:07:13.745Z,3.57
2018-05-29T18:09:42.032Z,4.07
2018-05-29T18:12:11.402Z,3.90
2018-05-29T18:14:39.858Z,3.30
2018-05-29T18:17:08.378Z,3.90
2018-05-29T18:19:36.783Z,3.20
2018-05-29T18:22:05.842Z,3.23
2018-05-29T18:24:34.254Z,3.20
2018-05-29T18:27:02.617Z,3.50
2018-05-29T18:29:30.913Z,3.77
2018-05-29T18:31:59.598Z,3.30
2018-05-29T18:34:28.368Z,4.00
2018-05-29T18:36:56.667Z,3.53
2018-05-29T18:39:26.015Z,4.03
2018-05-29T18:41:54.363Z,3.97
2018-05-29T18:44:23.777Z,3.53
2018-05-29T18:46:53.542Z,4.73
2018-05-29T18:49:22.432Z,3.93
2018-05-29T18:51:50.821Z,3.67
2018-05-29T18:54:19.497Z,4.30
2018-05-29T18:56:47.888Z,3.67
2018-05-29T18:59:17.049Z,3.60
2018-05-29T19:01:45.355Z,3.90
2018-05-29T19:04:14.206Z,3.83
2018-05-29T19:06:42.537Z,4.20
2018-05-29T19:09:11.654Z,3.87
2018-05-29T19:11:40.734Z,3.47
2018-05-29T19:14:09.103Z,3.97
2018-05-29T19:16:38.045Z,3.93
2018-05-29T19:19:06.517Z,4.47
2018-05-29T19:21:35.624Z,3.83
2018-05-29T19:24:03.891Z,3.73
2018-05-29T19:26:32.961Z,3.97
2018-05-29T19:29:01.739Z,4.30
2018-05-29T19:31:30.426Z,4.77
2018-05-29T19:33:58.721Z,4.53
2018-05-29T19:36:27.079Z,3.53
2018-05-29T19:38:55.784Z,4.37
2018-05-29T19:41:24.610Z,4.13
2018-05-29T19:43:53.700Z,4.27
2018-05-29T19:46:22.788Z,4.67
2018-05-29T19:48:51.864Z,4.43
2018-05-29T19:51:20.359Z,4.43
2018-05-29T19:53:48.667Z,4.17
2018-05-29T19:56:16.996Z,4.20
2018-05-29T19:58:46.813Z,3.97
2018-05-29T20:01:15.425Z,4.90
2018-05-29T20:03:43.861Z,5.17
2018-05-29T20:06:12.661Z,4.27
2018-05-29T20:08:41.461Z,5.20
2018-05-29T20:11:09.785Z,5.00
2018-05-29T20:13:38.129Z,4.87
2018-05-29T20:16:06.728Z,4.20
2018-05-29T20:18:35.806Z,4.30
2018-05-29T20:21:04.114Z,4.20
2018-05-29T20:23:32.913Z,4.70
2018-05-29T20:26:01.204Z,4.43
2018-05-29T20:28:29.623Z,4.07
2018-05-29T20:30:57.986Z,3.80
2018-05-29T20:33:26.796Z,4.30
2018-05-29T20:35:55.121Z,4.60
2018-05-29T20:38:23.688Z,4.00
2018-05-29T20:40:52.794Z,4.60
2018-05-29T20:43:21.131Z,4.53
2018-05-29T20:48:48.073Z,5.03
2018-05-29T20:51:16.357Z,4.70
2018-05-29T20:53:44.661Z,3.97
2018-05-29T20:56:13.543Z,5.13
2018-05-29T20:58:41.998Z,4.93
2018-05-29T21:01:10.293Z,4.60
2018-05-29T21:03:38.628Z,5.13
2018-05-29T21:06:06.921Z,4.47
2018-05-29T21:08:35.619Z,4.00
2018-05-29T21:11:04.023Z,4.33
2018-05-29T21:13:32.778Z,5.00
2018-05-29T21:16:01.626Z,5.00
2018-05-29T21:18:29.954Z,4.77
2018-05-29T21:20:58.249Z,5.17
2018-05-29T21:23:26.583Z,4.57
2018-05-29T21:25:56.476Z,3.83
2018-05-29T21:28:24.825Z,4.03
2018-05-29T21:30:53.315Z,4.23
2018-05-29T21:33:21.751Z,4.37
2018-05-29T21:35:50.061Z,4.40
2018-05-29T21:38:18.394Z,4.00
2018-05-29T21:40:47.578Z,5.00
2018-05-29T21:43:16.496Z,4.40
2018-05-29T21:45:45.105Z,5.00
2018-05-29T21:48:13.533Z,4.37
2018-05-29T21:50:41.845Z,5.13
2018-05-29T21:53:11.149Z,4.63
2018-05-29T21:55:40.034Z,3.90
2018-05-29T21:58:08.989Z,4.23
2018-05-29T22:00:38.080Z,4.03
2018-05-29T22:03:06.402Z,3.93
2018-05-29T22:05:35.572Z,4.40
2018-05-29T22:08:03.909Z,5.10
2018-05-29T22:10:33.144Z,3.90
2018-05-29T22:13:01.850Z,4.80
2018-05-29T22:15:31.869Z,4.33
2018-05-29T22:18:00.978Z,3.57
2018-05-29T22:20:30.123Z,4.30
2018-05-29T22:22:58.723Z,3.83
2018-05-29T22:25:28.654Z,4.60
2018-05-29T22:27:58.467Z,4.30
2018-05-29T22:30:26.883Z,4.73
2018-05-29T22:32:55.250Z,4.50
2018-05-29T22:35:24.316Z,4.40
2018-05-29T22:37:54.202Z,4.20
2018-05-29T22:40:22.531Z,4.60
2018-05-29T22:42:51.619Z,4.40
2018-05-29T22:45:20.327Z,3.73
2018-05-29T22:47:49.653Z,4.40
2018-05-29T22:50:17.978Z,4.00
2018-05-29T22:52:47.777Z,4.30
2018-05-29T22:55:16.094Z,3.87
2018-05-29T22:57:45.310Z,3.87
2018-05-29T23:00:15.518Z,4.10
2018-05-29T23:02:44.591Z,4.37
2018-05-29T23:05:14.386Z,3.90
2018-05-29T23:07:42.735Z,3.60
2018-05-29T23:10:11.100Z,3.90
2018-05-29T23:12:39.431Z,4.60
2018-05-29T23:15:08.218Z,3.63
2018-05-29T23:17:37.358Z,3.90
2018-05-29T23:20:06.450Z,4.13
2018-05-29T23:22:35.586Z,4.47
2018-05-29T23:25:03.903Z,4.87
2018-05-29T23:27:32.228Z,4.00
2018-05-29T23:30:00.780Z,4.60
2018-05-29T23:32:30.406Z,4.23
2018-05-29T23:34:59.499Z,4.13
2018-05-29T23:37:27.909Z,4.10
2018-05-29T23:39:57.935Z,4.20
2018-05-29T23:42:26.238Z,4.27
2018-05-29T23:44:54.592Z,4.10
2018-05-29T23:47:22.958Z,4.07
2018-05-29T23:49:54.614Z,3.67
2018-05-29T23:52:22.899Z,3.80
2018-05-29T23:54:51.200Z,3.50
2018-05-29T23:57:19.707Z,4.67
2018-05-29T23:59:48.035Z,4.97
